createdAt,value
2018-02-07T00:00:15.454Z,-3.66
2018-02-07T00:02:45.510Z,-3.29
2018-02-07T00:05:15.053Z,-2.77
2018-02-07T00:07:44.368Z,-2.50
2018-02-07T00:10:14.297Z,-2.13
2018-02-07T00:12:43.745Z,-1.96
2018-02-07T00:15:13.301Z,-1.87
2018-02-07T00:17:43.050Z,-1.69
2018-02-07T00:20:12.786Z,-1.83
2018-02-07T00:22:42.406Z,-1.79
2018-02-07T00:25:12.566Z,-1.71
2018-02-07T00:27:42.198Z,-1.81
2018-02-07T00:30:11.570Z,-1.72
2018-02-07T00:32:41.158Z,-1.76
2018-02-07T00:35:10.942Z,-1.74
2018-02-07T00:37:40.561Z,-1.75
2018-02-07T00:40:10.158Z,-1.71
2018-02-07T00:42:39.520Z,-1.82
2018-02-07T00:45:09.190Z,-2.17
2018-02-07T00:47:38.792Z,-2.86
2018-02-07T00:50:08.308Z,-2.31
2018-02-07T00:52:37.643Z,-2.00
2018-02-07T00:55:07.502Z,-2.06
2018-02-07T00:57:36.795Z,-1.86
2018-02-07T01:00:06.279Z,-2.10
2018-02-07T01:02:35.910Z,-2.10
2018-02-07T01:05:05.272Z,-1.75
2018-02-07T01:07:34.571Z,-1.95
2018-02-07T01:10:04.634Z,-2.14
2018-02-07T01:12:34.391Z,-2.23
2018-02-07T01:15:04.048Z,-2.05
2018-02-07T01:17:33.674Z,-2.25
2018-02-07T01:20:03.665Z,-2.48
2018-02-07T01:22:34.232Z,-2.27
2018-02-07T01:25:03.836Z,-2.35
2018-02-07T01:27:33.592Z,-2.33
2018-02-07T01:30:02.953Z,-2.33
2018-02-07T01:32:32.686Z,-3.11
2018-02-07T01:35:02.461Z,-2.68
2018-02-07T01:37:32.001Z,-2.52
2018-02-07T01:40:01.692Z,-2.43
2018-02-07T01:42:30.967Z,-2.40
2018-02-07T01:45:00.629Z,-2.47
2018-02-07T01:47:30.294Z,-2.41
2018-02-07T01:49:59.828Z,-2.40
2018-02-07T01:52:29.386Z,-2.49
2018-02-07T01:54:58.821Z,-2.45
2018-02-07T01:57:28.442Z,-2.45
2018-02-07T01:59:57.855Z,-2.72
2018-02-07T02:02:27.205Z,-2.93
2018-02-07T02:04:57.155Z,-2.62
2018-02-07T02:07:26.878Z,-2.46
2018-02-07T02:09:56.522Z,-2.45
2018-02-07T02:12:27.901Z,-2.73
2018-02-07T02:14:57.461Z,-2.78
2018-02-07T02:17:27.245Z,-2.78
2018-02-07T02:19:56.942Z,-2.75
2018-02-07T02:22:26.499Z,-2.91
2018-02-07T02:24:56.175Z,-2.87
2018-02-07T02:27:25.790Z,-2.68
2018-02-07T02:29:55.410Z,-2.54
2018-02-07T02:32:25.300Z,-2.63
2018-02-07T02:34:55.114Z,-2.66
2018-02-07T02:37:24.702Z,-2.67
2018-02-07T02:39:54.206Z,-3.05
2018-02-07T02:42:24.171Z,-2.79
2018-02-07T02:44:53.774Z,-2.67
2018-02-07T02:47:23.243Z,-2.82
2018-02-07T02:49:52.674Z,-2.83
2018-02-07T02:52:22.147Z,-3.23
2018-02-07T02:54:52.070Z,-3.27
2018-02-07T02:57:22.018Z,-3.26
2018-02-07T02:59:51.613Z,-3.07
2018-02-07T03:02:20.974Z,-3.10
2018-02-07T03:04:51.388Z,-3.33
2018-02-07T03:07:20.846Z,-2.95
2018-02-07T03:09:50.421Z,-3.10
2018-02-07T03:12:19.677Z,-3.07
2018-02-07T03:14:49.214Z,-2.75
2018-02-07T03:17:18.886Z,-3.09
2018-02-07T03:19:48.542Z,-3.04
2018-02-07T03:22:18.398Z,-2.78
2018-02-07T03:24:48.222Z,-2.84
2018-02-07T03:27:17.674Z,-3.25
2018-02-07T03:29:47.253Z,-3.09
2018-02-07T03:32:17.382Z,-2.94
2018-02-07T03:34:47.509Z,-3.07
2018-02-07T03:37:17.199Z,-3.03
2018-02-07T03:39:46.789Z,-3.33
2018-02-07T03:42:16.323Z,-3.40
2018-02-07T03:44:46.098Z,-3.16
2018-02-07T03:47:15.830Z,-3.42
2018-02-07T03:49:45.561Z,-3.38
2018-02-07T03:52:15.772Z,-3.16
2018-02-07T03:54:45.969Z,-3.33
2018-02-07T03:57:15.951Z,-3.46
2018-02-07T03:59:45.992Z,-3.67
2018-02-07T04:02:15.864Z,-3.59
2018-02-07T04:04:45.734Z,-3.52
2018-02-07T04:07:16.023Z,-3.46
2018-02-07T04:09:46.074Z,-3.63
2018-02-07T04:12:27.150Z,-3.51
2018-02-07T04:14:57.265Z,-3.59
2018-02-07T04:17:27.098Z,-3.47
2018-02-07T04:19:57.114Z,-3.50
2018-02-07T04:22:27.133Z,-3.69
2018-02-07T04:24:57.104Z,-3.58
2018-02-07T04:27:27.144Z,-3.53
2018-02-07T04:30:03.333Z,-3.56
2018-02-07T04:32:33.099Z,-3.58
2018-02-07T04:35:03.043Z,-3.56
2018-02-07T04:37:32.826Z,-3.69
2018-02-07T04:40:02.433Z,-3.74
2018-02-07T04:42:32.757Z,-3.70
2018-02-07T04:45:02.659Z,-3.75
2018-02-07T04:47:32.339Z,-3.70
2018-02-07T04:50:02.301Z,-3.78
2018-02-07T04:52:32.888Z,-3.99
2018-02-07T04:55:03.034Z,-4.05
2018-02-07T05:00:12.646Z,-4.55
2018-02-07T05:02:42.870Z,-5.12
2018-02-07T05:05:13.041Z,-4.58
2018-02-07T05:07:42.926Z,-4.25
2018-02-07T05:10:13.169Z,-4.09
2018-02-07T05:12:42.755Z,-4.01
2018-02-07T05:15:12.518Z,-3.88
2018-02-07T05:17:42.371Z,-3.93
2018-02-07T05:20:12.432Z,-3.93
2018-02-07T05:22:42.435Z,-3.88
2018-02-07T05:25:12.618Z,-3.95
2018-02-07T05:27:42.550Z,-4.16
2018-02-07T05:30:12.314Z,-4.16
2018-02-07T05:32:42.300Z,-4.21
2018-02-07T05:35:12.246Z,-5.32
2018-02-07T05:37:42.011Z,-5.55
2018-02-07T05:40:11.918Z,-5.77
2018-02-07T05:42:42.002Z,-5.44
2018-02-07T05:45:12.052Z,-5.20
2018-02-07T05:47:42.208Z,-5.06
2018-02-07T05:50:11.805Z,-5.06
2018-02-07T05:52:41.454Z,-4.17
2018-02-07T05:55:11.650Z,-3.90
2018-02-07T05:57:41.923Z,-3.76
2018-02-07T06:00:12.118Z,-3.91
2018-02-07T06:02:42.129Z,-3.80
2018-02-07T06:05:11.960Z,-3.60
2018-02-07T06:07:41.891Z,-3.53
2018-02-07T06:10:11.488Z,-3.56
2018-02-07T06:13:03.945Z,-3.50
2018-02-07T06:15:33.833Z,-3.50
2018-02-07T06:18:03.734Z,-3.70
2018-02-07T06:20:33.494Z,-3.84
2018-02-07T06:23:03.338Z,-3.85
2018-02-07T06:25:43.838Z,-3.78
2018-02-07T06:28:14.016Z,-3.69
2018-02-07T06:30:43.629Z,-3.34
2018-02-07T06:33:13.462Z,-3.58
2018-02-07T06:35:43.250Z,-3.65
2018-02-07T06:38:13.097Z,-3.45
2018-02-07T06:40:42.917Z,-3.65
2018-02-07T06:43:12.937Z,-3.39
2018-02-07T06:45:43.414Z,-3.73
2018-02-07T06:48:13.406Z,-3.46
2018-02-07T06:50:43.814Z,-3.86
2018-02-07T06:53:13.825Z,-3.54
2018-02-07T06:55:43.854Z,-3.64
2018-02-07T06:58:14.183Z,-3.55
2018-02-07T07:00:43.798Z,-3.64
2018-02-07T07:03:13.380Z,-3.78
2018-02-07T07:05:43.318Z,-3.66
2018-02-07T07:08:12.901Z,-3.79
2018-02-07T07:10:42.522Z,-3.79
2018-02-07T07:13:12.418Z,-3.58
2018-02-07T07:15:41.981Z,-3.41
2018-02-07T07:18:11.949Z,-3.39
2018-02-07T07:20:41.838Z,-3.32
2018-02-07T07:23:11.465Z,-3.54
2018-02-07T07:25:41.125Z,-3.39
2018-02-07T07:28:11.010Z,-3.52
2018-02-07T07:30:40.651Z,-3.42
2018-02-07T07:33:10.265Z,-3.48
2018-02-07T07:35:39.862Z,-3.23
2018-02-07T07:38:09.759Z,-3.29
2018-02-07T07:40:39.612Z,-3.23
2018-02-07T07:43:08.991Z,-3.10
2018-02-07T07:45:38.341Z,-3.14
2018-02-07T15:20:36.229Z,1.27
2018-02-07T15:23:07.069Z,1.48
2018-02-07T15:25:37.960Z,1.20
2018-02-07T15:28:09.584Z,1.34
2018-02-07T15:30:40.416Z,1.18
2018-02-07T15:33:11.248Z,1.18
2018-02-07T15:35:42.309Z,0.49
2018-02-07T15:38:13.124Z,1.00
2018-02-07T15:40:44.151Z,0.90
2018-02-07T15:43:15.440Z,1.12
2018-02-07T15:45:46.240Z,0.83
2018-02-07T15:48:17.436Z,0.77
2018-02-07T15:50:48.317Z,0.60
2018-02-07T15:53:19.179Z,1.14
2018-02-07T15:55:50.212Z,1.20
2018-02-07T15:58:21.024Z,0.96
2018-02-07T16:00:51.804Z,1.19
2018-02-07T16:03:22.872Z,1.20
2018-02-07T16:05:54.064Z,0.30
2018-02-07T16:08:25.945Z,0.60
2018-02-07T16:10:57.083Z,0.08
2018-02-07T16:13:27.926Z,0.50
2018-02-07T16:15:59.148Z,0.49
2018-02-07T16:18:30.016Z,0.64
2018-02-07T16:21:00.961Z,-0.05
2018-02-07T16:23:32.112Z,-0.14
2018-02-07T16:26:03.033Z,0.04
2018-02-07T16:28:33.821Z,0.11
2018-02-07T16:31:05.970Z,0.11
2018-02-07T16:33:36.766Z,0.25
2018-02-07T16:36:07.571Z,-0.48
2018-02-07T16:38:39.565Z,-0.32
2018-02-07T16:41:10.622Z,0.01
2018-02-07T16:43:42.635Z,-0.16
2018-02-07T16:46:13.472Z,-0.13
2018-02-07T16:48:44.342Z,0.43
2018-02-07T16:51:15.613Z,0.68
2018-02-07T16:53:46.420Z,0.66
2018-02-07T16:56:17.300Z,0.75
2018-02-07T16:58:48.217Z,0.68
2018-02-07T17:01:19.090Z,0.67
2018-02-07T17:03:50.013Z,0.58
2018-02-07T17:06:21.572Z,0.17
2018-02-07T17:08:52.469Z,0.51
2018-02-07T17:11:23.241Z,0.27
2018-02-07T17:13:54.041Z,-0.14
2018-02-07T17:16:25.024Z,0.25
2018-02-07T17:18:55.876Z,-0.52
2018-02-07T17:21:26.801Z,-1.10
2018-02-07T17:23:58.588Z,-0.44
2018-02-07T17:26:29.445Z,-0.44
2018-02-07T17:29:00.208Z,-0.67
2018-02-07T17:31:31.296Z,-0.87
2018-02-07T17:34:02.180Z,-0.47
2018-02-07T17:36:32.964Z,-0.30
2018-02-07T17:39:04.311Z,-0.60
2018-02-07T17:41:35.754Z,-0.42
2018-02-07T17:44:07.364Z,-0.69
2018-02-07T17:46:38.572Z,-0.78
2018-02-07T17:49:09.581Z,-0.51
2018-02-07T17:51:40.410Z,-0.46
2018-02-07T17:54:12.084Z,-0.64
2018-02-07T17:56:43.179Z,-0.71
2018-02-07T17:59:13.973Z,-0.43
2018-02-07T18:01:44.823Z,-0.76
2018-02-07T18:04:17.662Z,-1.03
2018-02-07T18:06:48.529Z,-1.23
2018-02-07T18:09:19.717Z,-0.87
2018-02-07T18:11:50.631Z,-0.55
2018-02-07T18:14:21.513Z,-0.53
2018-02-07T18:16:52.577Z,-0.42
2018-02-07T18:19:23.426Z,-0.26
2018-02-07T18:21:56.973Z,-0.61
2018-02-07T18:24:28.277Z,-0.67
2018-02-07T18:26:59.130Z,-0.60
2018-02-07T18:29:30.041Z,-0.41
2018-02-07T18:32:01.307Z,-0.51
2018-02-07T18:34:32.100Z,-0.88
2018-02-07T18:37:03.323Z,-0.79
2018-02-07T18:39:34.181Z,-0.81
2018-02-07T18:42:05.452Z,-0.51
2018-02-07T18:44:36.740Z,-0.67
2018-02-07T18:47:07.548Z,-0.85
2018-02-07T18:49:38.388Z,-1.33
2018-02-07T18:52:09.512Z,-1.97
2018-02-07T18:54:40.265Z,-1.49
2018-02-07T18:57:11.036Z,-1.79
2018-02-07T18:59:42.169Z,-1.51
2018-02-07T19:02:13.002Z,-1.64
2018-02-07T19:04:43.875Z,-0.92
2018-02-07T19:07:14.904Z,-1.04
2018-02-07T19:09:45.842Z,-1.18
2018-02-07T19:12:17.102Z,-1.02
2018-02-07T19:14:47.916Z,-1.23
2018-02-07T19:17:19.257Z,-1.20
2018-02-07T19:19:50.521Z,-1.29
2018-02-07T19:22:21.341Z,-1.12
2018-02-07T19:24:52.170Z,-1.10
2018-02-07T19:27:23.896Z,-1.04
2018-02-07T19:29:54.781Z,-0.81
2018-02-07T19:32:25.582Z,-1.09
2018-02-07T19:34:58.946Z,-1.07
2018-02-07T19:37:29.866Z,-1.03
2018-02-07T19:40:00.962Z,-1.07
2018-02-07T19:42:31.881Z,-0.96
2018-02-07T19:45:03.577Z,-0.88
2018-02-07T19:47:34.700Z,-0.93
2018-02-07T19:50:05.649Z,-0.82
2018-02-07T19:52:36.428Z,-0.92
2018-02-07T19:55:07.728Z,-0.83
2018-02-07T19:57:43.037Z,-0.80
2018-02-07T20:00:14.165Z,-1.12
2018-02-07T20:02:45.058Z,-1.23
2018-02-07T20:05:15.892Z,-0.80
2018-02-07T20:07:47.314Z,-0.71
2018-02-07T20:10:18.727Z,-0.76
2018-02-07T20:12:49.548Z,-1.10
2018-02-07T20:15:20.852Z,-1.12
2018-02-07T20:17:51.723Z,-1.68
2018-02-07T20:20:23.408Z,-1.46
2018-02-07T20:22:55.312Z,-1.60
2018-02-07T20:25:26.128Z,-2.10
2018-02-07T20:27:57.208Z,-1.24
2018-02-07T20:30:28.124Z,-2.16
2018-02-07T20:32:58.936Z,-2.24
2018-02-07T20:35:30.108Z,-2.35
2018-02-07T20:38:00.912Z,-2.49
2018-02-07T20:40:31.652Z,-2.53
2018-02-07T20:43:02.535Z,-2.41
2018-02-07T20:45:33.372Z,-2.34
2018-02-07T20:48:04.181Z,-1.61
2018-02-07T20:50:35.340Z,-1.21
2018-02-07T20:53:06.144Z,-1.33
2018-02-07T20:55:36.926Z,-1.96
2018-02-07T20:58:08.140Z,-1.16
2018-02-07T21:00:39.017Z,-1.71
2018-02-07T21:03:09.812Z,-1.50
2018-02-07T21:05:40.920Z,-1.09
2018-02-07T21:08:12.080Z,-1.83
2018-02-07T21:10:42.936Z,-2.00
2018-02-07T21:13:15.064Z,-1.58
2018-02-07T21:15:45.876Z,-1.12
2018-02-07T21:18:16.752Z,-1.80
2018-02-07T21:20:47.927Z,-1.59
2018-02-07T21:23:19.364Z,-1.27
2018-02-07T21:25:50.400Z,-2.02
2018-02-07T21:28:21.328Z,-2.19
2018-02-07T21:30:52.216Z,-2.19
2018-02-07T21:33:23.408Z,-2.24
2018-02-07T21:35:54.289Z,-2.30
2018-02-07T21:38:25.072Z,-2.31
2018-02-07T21:40:56.312Z,-2.31
2018-02-07T21:43:27.495Z,-2.10
2018-02-07T21:45:58.408Z,-2.22
2018-02-07T21:48:29.528Z,-2.25
2018-02-07T21:51:00.453Z,-2.28
2018-02-07T21:53:31.569Z,-2.32
2018-02-07T21:56:02.390Z,-2.30
2018-02-07T21:58:33.244Z,-1.96
2018-02-07T22:01:04.376Z,-2.13
2018-02-07T22:03:35.924Z,-2.21
2018-02-07T22:06:07.349Z,-2.21
2018-02-07T22:08:38.574Z,-2.21
2018-02-07T22:11:09.777Z,-2.05
2018-02-07T22:13:41.088Z,-2.09
2018-02-07T22:16:12.235Z,-1.64
2018-02-07T22:18:43.074Z,-1.35
2018-02-07T22:21:14.269Z,-1.35
2018-02-07T22:23:45.009Z,-1.79
2018-02-07T22:26:15.905Z,-1.90
2018-02-07T22:28:47.079Z,-2.14
2018-02-07T22:31:21.267Z,-2.18
2018-02-07T22:33:54.681Z,-2.20
2018-02-07T22:36:25.832Z,-2.18
2018-02-07T22:38:56.709Z,-2.19
2018-02-07T22:41:28.054Z,-1.49
2018-02-07T22:43:59.230Z,-1.56
2018-02-07T22:46:30.130Z,-1.33
2018-02-07T22:49:04.870Z,-1.81
2018-02-07T22:51:35.993Z,-1.55
2018-02-07T22:54:06.930Z,-1.99
2018-02-07T22:56:38.448Z,-2.07
2018-02-07T22:59:10.022Z,-2.08
2018-02-07T23:01:40.927Z,-2.13
2018-02-07T23:04:12.147Z,-2.14
2018-02-07T23:06:43.100Z,-1.50
2018-02-07T23:09:13.988Z,-1.14
2018-02-07T23:11:45.583Z,-1.17
2018-02-07T23:14:16.306Z,-1.55
2018-02-07T23:16:47.662Z,-1.79
2018-02-07T23:19:19.586Z,-1.71
2018-02-07T23:21:50.659Z,-1.36
2018-02-07T23:24:21.693Z,-0.90
2018-02-07T23:26:53.019Z,-0.54
2018-02-07T23:29:24.384Z,-0.69
2018-02-07T23:31:55.835Z,-0.72
2018-02-07T23:34:26.929Z,-0.48
2018-02-07T23:36:57.639Z,-1.53
2018-02-07T23:39:28.826Z,-1.52
2018-02-07T23:41:59.510Z,-1.25
2018-02-07T23:44:30.196Z,-1.40
2018-02-07T23:47:02.289Z,-0.69
2018-02-07T23:49:33.015Z,-0.47
2018-02-07T23:52:03.876Z,-0.80
2018-02-07T23:54:34.586Z,-1.48
2018-02-07T23:57:05.291Z,-1.63
2018-02-07T23:59:36.291Z,-0.86
